sensor_id;sensor_type;location;lat;lon;timestamp;temperature;humidity
2162;DHT22;1087;50.226;8.682;2023-01-01T00:00:06;13.50;99.90
2162;DHT22;1087;50.226;8.682;2023-01-01T00:02:32;13.50;99.90
2162;DHT22;1087;50.226;8.682;2023-01-01T00:04:57;13.40;99.90
2162;DHT22;1087;50.226;8.682;2023-01-01T00:07:23;13.40;99.90
2162;DHT22;1087;50.226;8.682;2023-01-01T00:09:48;13.50;99.90
2162;DHT22;1087;50.226;8.682;2023-01-01T00:12:33;13.40;99.90
2162;DHT22;1087;50.226;8.682;2023-01-01T00:14:59;13.40;99.90
2162;DHT22;1087;50.226;8.682;2023-01-01T00:17:24;13.50;99.90
2162;DHT22;1087;50.226;8.682;2023-01-01T00:19:50;13.40;99.90
2162;DHT22;1087;50.226;8.682;2023-01-01T00:22:16;13.40;99.90
2162;DHT22;1087;50.226;8.682;2023-01-01T00:24:42;13.50;99.90
2162;DHT22;1087;50.226;8.682;2023-01-01T00:27:07;13.50;99.90
2162;DHT22;1087;50.226;8.682;2023-01-01T00:29:33;13.50;99.90
2162;DHT22;1087;50.226;8.682;2023-01-01T00:31:58;13.50;99.90
2162;DHT22;1087;50.226;8.682;2023-01-01T00:34:24;13.40;99.90
2162;DHT22;1087;50.226;8.682;2023-01-01T00:36:49;13.40;99.90
2162;DHT22;1087;50.226;8.682;2023-01-01T00:39:15;13.50;99.90
2162;DHT22;1087;50.226;8.682;2023-01-01T00:41:40;13.50;99.90
2162;DHT22;1087;50.226;8.682;2023-01-01T00:44:06;13.60;99.90
2162;DHT22;1087;50.226;8.682;2023-01-01T00:46:31;13.50;99.90
2162;DHT22;1087;50.226;8.682;2023-01-01T00:48:57;13.50;99.90
2162;DHT22;1087;50.226;8.682;2023-01-01T00:51:23;13.40;99.90
2162;DHT22;1087;50.226;8.682;2023-01-01T00:53:48;13.30;99.90
2162;DHT22;1087;50.226;8.682;2023-01-01T00:56:14;13.30;99.90
2162;DHT22;1087;50.226;8.682;2023-01-01T00:58:39;13.30;99.90
2162;DHT22;1087;50.226;8.682;2023-01-01T01:01:05;13.30;99.90
2162;DHT22;1087;50.226;8.682;2023-01-01T01:03:30;13.30;99.90
2162;DHT22;1087;50.226;8.682;2023-01-01T01:06:08;13.30;99.90
2162;DHT22;1087;50.226;8.682;2023-01-01T01:08:37;13.20;99.90
2162;DHT22;1087;50.226;8.682;2023-01-01T01:11:11;13.20;99.90
2162;DHT22;1087;50.226;8.682;2023-01-01T01:13:37;13.20;99.90
2162;DHT22;1087;50.226;8.682;2023-01-01T01:16:08;13.10;99.90
2162;DHT22;1087;50.226;8.682;2023-01-01T01:18:34;13.10;99.90
2162;DHT22;1087;50.226;8.682;2023-01-01T01:20:59;13.00;99.90
2162;DHT22;1087;50.226;8.682;2023-01-01T01:23:25;13.10;99.90
2162;DHT22;1087;50.226;8.682;2023-01-01T01:25:50;13.10;99.90
2162;DHT22;1087;50.226;8.682;2023-01-01T01:28:16;13.00;99.90
2162;DHT22;1087;50.226;8.682;2023-01-01T01:30:41;13.10;99.90
2162;DHT22;1087;50.226;8.682;2023-01-01T01:33:07;13.00;99.90
2162;DHT22;1087;50.226;8.682;2023-01-01T01:35:32;13.00;99.90
2162;DHT22;1087;50.226;8.682;2023-01-01T01:37:58;13.10;99.90
2162;DHT22;1087;50.226;8.682;2023-01-01T01:40:24;13.00;99.90
2162;DHT22;1087;50.226;8.682;2023-01-01T01:42:50;13.00;99.90
2162;DHT22;1087;50.226;8.682;2023-01-01T01:45:17;13.10;99.90
2162;DHT22;1087;50.226;8.682;2023-01-01T01:47:54;13.10;99.90
2162;DHT22;1087;50.226;8.682;2023-01-01T01:50:38;13.10;99.90
2162;DHT22;1087;50.226;8.682;2023-01-01T01:53:12;13.10;99.90
2162;DHT22;1087;50.226;8.682;2023-01-01T01:55:44;13.10;99.90
2162;DHT22;1087;50.226;8.682;2023-01-01T01:58:13;13.10;99.90
2162;DHT22;1087;50.226;8.682;2023-01-01T02:00:39;13.10;99.90
2162;DHT22;1087;50.226;8.682;2023-01-01T02:03:08;13.10;99.90
2162;DHT22;1087;50.226;8.682;2023-01-01T02:05:34;13.00;99.90
2162;DHT22;1087;50.226;8.682;2023-01-01T02:08:02;12.90;99.90
2162;DHT22;1087;50.226;8.682;2023-01-01T02:10:29;12.90;99.90
2162;DHT22;1087;50.226;8.682;2023-01-01T02:12:54;12.90;99.90
2162;DHT22;1087;50.226;8.682;2023-01-01T02:15:22;12.80;99.90
2162;DHT22;1087;50.226;8.682;2023-01-01T02:18:12;13.00;99.90
2162;DHT22;1087;50.226;8.682;2023-01-01T02:29:10;13.00;99.90
2162;DHT22;1087;50.226;8.682;2023-01-01T02:31:43;12.90;99.90
2162;DHT22;1087;50.226;8.682;2023-01-01T02:34:13;12.90;99.90
2162;DHT22;1087;50.226;8.682;2023-01-01T02:36:45;12.90;99.90
2162;DHT22;1087;50.226;8.682;2023-01-01T02:39:13;13.00;99.90
2162;DHT22;1087;50.226;8.682;2023-01-01T02:41:43;13.00;99.90
2162;DHT22;1087;50.226;8.682;2023-01-01T02:44:11;13.00;99.90
2162;DHT22;1087;50.226;8.682;2023-01-01T02:46:36;12.90;99.90
2162;DHT22;1087;50.226;8.682;2023-01-01T02:49:03;12.90;99.90
2162;DHT22;1087;50.226;8.682;2023-01-01T02:57:20;12.80;99.90
2162;DHT22;1087;50.226;8.682;2023-01-01T02:59:57;12.80;99.90
2162;DHT22;1087;50.226;8.682;2023-01-01T03:03:08;12.80;99.90
2162;DHT22;1087;50.226;8.682;2023-01-01T03:06:04;12.80;99.90
2162;DHT22;1087;50.226;8.682;2023-01-01T03:11:21;12.80;99.90
2162;DHT22;1087;50.226;8.682;2023-01-01T03:13:58;12.80;99.90
2162;DHT22;1087;50.226;8.682;2023-01-01T03:19:08;12.70;99.90
2162;DHT22;1087;50.226;8.682;2023-01-01T03:24:09;12.70;99.90
2162;DHT22;1087;50.226;8.682;2023-01-01T03:26:38;12.70;99.90
2162;DHT22;1087;50.226;8.682;2023-01-01T03:29:05;12.70;99.90
2162;DHT22;1087;50.226;8.682;2023-01-01T03:31:35;12.70;99.90
2162;DHT22;1087;50.226;8.682;2023-01-01T03:34:06;12.70;99.90
2162;DHT22;1087;50.226;8.682;2023-01-01T03:36:38;12.70;99.90
2162;DHT22;1087;50.226;8.682;2023-01-01T03:39:15;12.60;99.90
2162;DHT22;1087;50.226;8.682;2023-01-01T03:41:43;12.70;99.90
2162;DHT22;1087;50.226;8.682;2023-01-01T03:44:16;12.70;99.90
2162;DHT22;1087;50.226;8.682;2023-01-01T03:46:44;12.70;99.90
2162;DHT22;1087;50.226;8.682;2023-01-01T03:49:12;12.70;99.90
2162;DHT22;1087;50.226;8.682;2023-01-01T03:51:59;12.70;99.90
2162;DHT22;1087;50.226;8.682;2023-01-01T03:57:25;12.60;99.90
2162;DHT22;1087;50.226;8.682;2023-01-01T03:59:57;12.60;99.90
2162;DHT22;1087;50.226;8.682;2023-01-01T04:02:33;12.70;99.90
2162;DHT22;1087;50.226;8.682;2023-01-01T04:05:02;12.60;99.90
2162;DHT22;1087;50.226;8.682;2023-01-01T04:07:33;12.60;99.90
2162;DHT22;1087;50.226;8.682;2023-01-01T04:10:00;12.60;99.90
2162;DHT22;1087;50.226;8.682;2023-01-01T04:12:27;12.60;99.90
2162;DHT22;1087;50.226;8.682;2023-01-01T04:14:54;12.70;99.90
2162;DHT22;1087;50.226;8.682;2023-01-01T04:17:19;12.70;99.90
2162;DHT22;1087;50.226;8.682;2023-01-01T04:19:45;12.70;99.90
2162;DHT22;1087;50.226;8.682;2023-01-01T04:22:10;12.70;99.90
2162;DHT22;1087;50.226;8.682;2023-01-01T04:24:36;12.70;99.90
2162;DHT22;1087;50.226;8.682;2023-01-01T04:27:02;12.70;99.90
2162;DHT22;1087;50.226;8.682;2023-01-01T04:29:28;12.70;99.90
2162;DHT22;1087;50.226;8.682;2023-01-01T04:31:54;12.70;99.90
2162;DHT22;1087;50.226;8.682;2023-01-01T04:34:19;12.70;99.90
2162;DHT22;1087;50.226;8.682;2023-01-01T04:36:45;12.60;99.90
2162;DHT22;1087;50.226;8.682;2023-01-01T04:39:10;12.60;99.90
2162;DHT22;1087;50.226;8.682;2023-01-01T04:41:36;12.60;99.90
2162;DHT22;1087;50.226;8.682;2023-01-01T04:44:01;12.60;99.90
2162;DHT22;1087;50.226;8.682;2023-01-01T04:46:27;12.60;99.90
2162;DHT22;1087;50.226;8.682;2023-01-01T04:48:52;12.60;99.90
2162;DHT22;1087;50.226;8.682;2023-01-01T04:51:20;12.50;99.90
2162;DHT22;1087;50.226;8.682;2023-01-01T04:53:45;12.60;99.90
2162;DHT22;1087;50.226;8.682;2023-01-01T04:56:16;12.50;99.90
2162;DHT22;1087;50.226;8.682;2023-01-01T04:58:43;12.50;99.90
2162;DHT22;1087;50.226;8.682;2023-01-01T05:01:20;12.50;99.90
2162;DHT22;1087;50.226;8.682;2023-01-01T05:03:46;12.50;99.90
2162;DHT22;1087;50.226;8.682;2023-01-01T05:06:13;12.40;99.90
2162;DHT22;1087;50.226;8.682;2023-01-01T05:08:41;12.40;99.90
2162;DHT22;1087;50.226;8.682;2023-01-01T05:11:20;12.40;99.90
2162;DHT22;1087;50.226;8.682;2023-01-01T05:13:49;12.40;99.90
2162;DHT22;1087;50.226;8.682;2023-01-01T05:16:18;12.40;99.90
2162;DHT22;1087;50.226;8.682;2023-01-01T05:18:44;12.30;99.90
2162;DHT22;1087;50.226;8.682;2023-01-01T05:21:13;12.30;99.90
2162;DHT22;1087;50.226;8.682;2023-01-01T05:23:39;12.30;99.90
2162;DHT22;1087;50.226;8.682;2023-01-01T05:26:16;12.30;99.90
2162;DHT22;1087;50.226;8.682;2023-01-01T05:28:42;12.20;99.90
2162;DHT22;1087;50.226;8.682;2023-01-01T05:31:13;12.20;99.90
2162;DHT22;1087;50.226;8.682;2023-01-01T05:33:39;12.20;99.90
2162;DHT22;1087;50.226;8.682;2023-01-01T05:36:06;12.20;99.90
2162;DHT22;1087;50.226;8.682;2023-01-01T05:38:33;12.10;99.90
2162;DHT22;1087;50.226;8.682;2023-01-01T05:40:59;12.10;99.90
2162;DHT22;1087;50.226;8.682;2023-01-01T05:43:24;12.00;99.90
2162;DHT22;1087;50.226;8.682;2023-01-01T05:45:59;12.00;99.90
2162;DHT22;1087;50.226;8.682;2023-01-01T05:48:25;12.00;99.90
2162;DHT22;1087;50.226;8.682;2023-01-01T05:50:51;12.00;99.90
2162;DHT22;1087;50.226;8.682;2023-01-01T05:53:16;12.00;99.90
2162;DHT22;1087;50.226;8.682;2023-01-01T05:55:42;11.90;99.90
2162;DHT22;1087;50.226;8.682;2023-01-01T05:58:07;12.00;99.90
2162;DHT22;1087;50.226;8.682;2023-01-01T06:00:33;12.00;99.90
2162;DHT22;1087;50.226;8.682;2023-01-01T06:02:58;11.90;99.90
2162;DHT22;1087;50.226;8.682;2023-01-01T06:05:24;11.90;99.90
2162;DHT22;1087;50.226;8.682;2023-01-01T06:07:49;11.90;99.90
2162;DHT22;1087;50.226;8.682;2023-01-01T06:10:15;11.90;99.90
2162;DHT22;1087;50.226;8.682;2023-01-01T06:12:40;11.80;99.90
2162;DHT22;1087;50.226;8.682;2023-01-01T06:15:06;11.80;99.90
2162;DHT22;1087;50.226;8.682;2023-01-01T06:17:32;11.80;99.90
2162;DHT22;1087;50.226;8.682;2023-01-01T06:19:58;11.80;99.90
2162;DHT22;1087;50.226;8.682;2023-01-01T06:22:24;11.80;99.90
2162;DHT22;1087;50.226;8.682;2023-01-01T06:24:49;11.70;99.90
2162;DHT22;1087;50.226;8.682;2023-01-01T06:27:15;11.80;99.90
2162;DHT22;1087;50.226;8.682;2023-01-01T06:29:40;11.70;99.90
2162;DHT22;1087;50.226;8.682;2023-01-01T06:32:06;11.80;99.90
2162;DHT22;1087;50.226;8.682;2023-01-01T06:34:31;11.70;99.90
2162;DHT22;1087;50.226;8.682;2023-01-01T06:36:57;11.70;99.90
2162;DHT22;1087;50.226;8.682;2023-01-01T06:39:22;11.70;99.90
2162;DHT22;1087;50.226;8.682;2023-01-01T06:41:48;11.60;99.90
2162;DHT22;1087;50.226;8.682;2023-01-01T06:44:13;11.60;99.90
2162;DHT22;1087;50.226;8.682;2023-01-01T06:46:39;11.60;99.90
2162;DHT22;1087;50.226;8.682;2023-01-01T06:49:10;11.60;99.90
2162;DHT22;1087;50.226;8.682;2023-01-01T06:51:38;11.60;99.90
2162;DHT22;1087;50.226;8.682;2023-01-01T06:54:04;11.50;99.90
2162;DHT22;1087;50.226;8.682;2023-01-01T06:56:30;11.50;99.90
2162;DHT22;1087;50.226;8.682;2023-01-01T06:58:57;11.50;99.90
2162;DHT22;1087;50.226;8.682;2023-01-01T07:01:25;11.50;99.90
2162;DHT22;1087;50.226;8.682;2023-01-01T07:06:18;11.40;99.90
2162;DHT22;1087;50.226;8.682;2023-01-01T07:08:44;11.40;99.90
2162;DHT22;1087;50.226;8.682;2023-01-01T07:11:09;11.40;99.90
2162;DHT22;1087;50.226;8.682;2023-01-01T07:13:34;11.40;99.90
2162;DHT22;1087;50.226;8.682;2023-01-01T07:16:01;11.40;99.90
2162;DHT22;1087;50.226;8.682;2023-01-01T07:18:27;11.40;99.90
2162;DHT22;1087;50.226;8.682;2023-01-01T07:20:54;11.30;99.90
2162;DHT22;1087;50.226;8.682;2023-01-01T07:23:21;11.40;99.90
2162;DHT22;1087;50.226;8.682;2023-01-01T07:25:50;11.30;99.90
2162;DHT22;1087;50.226;8.682;2023-01-01T07:28:16;11.30;99.90
2162;DHT22;1087;50.226;8.682;2023-01-01T07:30:42;11.30;99.90
2162;DHT22;1087;50.226;8.682;2023-01-01T07:33:12;11.30;99.90
2162;DHT22;1087;50.226;8.682;2023-01-01T07:35:38;11.30;99.90
2162;DHT22;1087;50.226;8.682;2023-01-01T07:38:04;11.30;99.90
2162;DHT22;1087;50.226;8.682;2023-01-01T07:40:29;11.30;99.90
2162;DHT22;1087;50.226;8.682;2023-01-01T07:42:55;11.30;99.90
2162;DHT22;1087;50.226;8.682;2023-01-01T07:45:20;11.30;99.90
2162;DHT22;1087;50.226;8.682;2023-01-01T07:47:50;11.30;99.90
2162;DHT22;1087;50.226;8.682;2023-01-01T07:50:17;11.30;99.90
2162;DHT22;1087;50.226;8.682;2023-01-01T07:52:43;11.30;99.90
2162;DHT22;1087;50.226;8.682;2023-01-01T07:55:16;11.30;99.90
2162;DHT22;1087;50.226;8.682;2023-01-01T07:57:42;11.30;99.90
2162;DHT22;1087;50.226;8.682;2023-01-01T08:00:10;11.30;99.90
2162;DHT22;1087;50.226;8.682;2023-01-01T08:02:36;11.30;99.90
2162;DHT22;1087;50.226;8.682;2023-01-01T08:05:01;11.30;99.90
2162;DHT22;1087;50.226;8.682;2023-01-01T08:07:27;11.30;99.90
2162;DHT22;1087;50.226;8.682;2023-01-01T08:09:52;11.30;99.90
2162;DHT22;1087;50.226;8.682;2023-01-01T08:12:18;11.30;99.90
2162;DHT22;1087;50.226;8.682;2023-01-01T08:14:43;11.30;99.90
2162;DHT22;1087;50.226;8.682;2023-01-01T08:17:09;11.30;99.90
2162;DHT22;1087;50.226;8.682;2023-01-01T08:19:34;11.30;99.90
2162;DHT22;1087;50.226;8.682;2023-01-01T08:22:00;11.30;99.90
2162;DHT22;1087;50.226;8.682;2023-01-01T08:24:25;11.40;99.90
2162;DHT22;1087;50.226;8.682;2023-01-01T08:26:51;11.40;99.90
2162;DHT22;1087;50.226;8.682;2023-01-01T08:29:17;11.40;99.90
2162;DHT22;1087;50.226;8.682;2023-01-01T08:31:42;11.40;99.90
2162;DHT22;1087;50.226;8.682;2023-01-01T08:34:08;11.40;99.90
2162;DHT22;1087;50.226;8.682;2023-01-01T08:36:34;11.30;99.90
2162;DHT22;1087;50.226;8.682;2023-01-01T08:38:59;11.30;99.90
2162;DHT22;1087;50.226;8.682;2023-01-01T08:41:25;11.40;99.90
2162;DHT22;1087;50.226;8.682;2023-01-01T08:43:50;11.40;99.90
2162;DHT22;1087;50.226;8.682;2023-01-01T08:46:16;11.30;99.90
2162;DHT22;1087;50.226;8.682;2023-01-01T08:48:42;11.30;99.90
2162;DHT22;1087;50.226;8.682;2023-01-01T08:51:08;11.30;99.90
2162;DHT22;1087;50.226;8.682;2023-01-01T08:53:34;11.50;99.90
2162;DHT22;1087;50.226;8.682;2023-01-01T08:56:02;11.50;99.90
2162;DHT22;1087;50.226;8.682;2023-01-01T08:58:29;11.60;99.90
2162;DHT22;1087;50.226;8.682;2023-01-01T09:00:54;11.60;99.90
2162;DHT22;1087;50.226;8.682;2023-01-01T09:03:20;11.70;99.90
2162;DHT22;1087;50.226;8.682;2023-01-01T09:05:46;11.70;99.90
2162;DHT22;1087;50.226;8.682;2023-01-01T09:08:12;11.60;99.90
2162;DHT22;1087;50.226;8.682;2023-01-01T09:10:38;11.50;99.90
2162;DHT22;1087;50.226;8.682;2023-01-01T09:13:03;11.60;99.90
2162;DHT22;1087;50.226;8.682;2023-01-01T09:15:29;11.60;99.90
2162;DHT22;1087;50.226;8.682;2023-01-01T09:17:54;11.60;99.90
2162;DHT22;1087;50.226;8.682;2023-01-01T09:20:20;11.60;99.90
2162;DHT22;1087;50.226;8.682;2023-01-01T09:22:45;11.70;99.90
2162;DHT22;1087;50.226;8.682;2023-01-01T09:25:11;11.70;99.90
2162;DHT22;1087;50.226;8.682;2023-01-01T09:27:36;11.80;99.90
2162;DHT22;1087;50.226;8.682;2023-01-01T09:30:02;11.80;99.90
2162;DHT22;1087;50.226;8.682;2023-01-01T09:32:28;11.90;99.90
2162;DHT22;1087;50.226;8.682;2023-01-01T09:34:53;12.00;99.90
2162;DHT22;1087;50.226;8.682;2023-01-01T09:37:21;11.80;99.90
2162;DHT22;1087;50.226;8.682;2023-01-01T09:39:46;11.80;99.90
2162;DHT22;1087;50.226;8.682;2023-01-01T09:47:33;11.80;99.90
2162;DHT22;1087;50.226;8.682;2023-01-01T09:50:05;11.80;99.90
2162;DHT22;1087;50.226;8.682;2023-01-01T09:58:10;11.90;99.90
2162;DHT22;1087;50.226;8.682;2023-01-01T10:00:38;11.90;99.90
2162;DHT22;1087;50.226;8.682;2023-01-01T10:03:10;12.00;99.90
2162;DHT22;1087;50.226;8.682;2023-01-01T10:05:59;11.90;99.90
2162;DHT22;1087;50.226;8.682;2023-01-01T10:14:33;12.00;99.90
2162;DHT22;1087;50.226;8.682;2023-01-01T10:17:17;12.00;99.90
2162;DHT22;1087;50.226;8.682;2023-01-01T10:19:48;12.10;99.90
2162;DHT22;1087;50.226;8.682;2023-01-01T10:25:03;12.10;99.90
2162;DHT22;1087;50.226;8.682;2023-01-01T10:27:34;12.10;99.90
2162;DHT22;1087;50.226;8.682;2023-01-01T10:30:08;12.10;99.90
2162;DHT22;1087;50.226;8.682;2023-01-01T10:32:37;12.20;99.90
2162;DHT22;1087;50.226;8.682;2023-01-01T10:35:12;12.20;99.90
2162;DHT22;1087;50.226;8.682;2023-01-01T10:37:39;12.20;99.90
2162;DHT22;1087;50.226;8.682;2023-01-01T10:40:16;12.20;99.90
2162;DHT22;1087;50.226;8.682;2023-01-01T10:42:47;12.30;99.90
2162;DHT22;1087;50.226;8.682;2023-01-01T10:45:15;12.30;99.90
2162;DHT22;1087;50.226;8.682;2023-01-01T10:48:17;12.40;99.90
2162;DHT22;1087;50.226;8.682;2023-01-01T10:50:58;12.40;99.90
2162;DHT22;1087;50.226;8.682;2023-01-01T10:53:40;12.40;99.90
2162;DHT22;1087;50.226;8.682;2023-01-01T10:56:10;12.40;99.90
2162;DHT22;1087;50.226;8.682;2023-01-01T10:58:41;12.40;99.90
2162;DHT22;1087;50.226;8.682;2023-01-01T11:01:10;12.50;99.90
2162;DHT22;1087;50.226;8.682;2023-01-01T11:03:37;12.50;99.90
2162;DHT22;1087;50.226;8.682;2023-01-01T11:06:19;12.50;99.90
2162;DHT22;1087;50.226;8.682;2023-01-01T11:08:49;12.50;99.90
2162;DHT22;1087;50.226;8.682;2023-01-01T11:11:40;12.50;99.90
2162;DHT22;1087;50.226;8.682;2023-01-01T11:14:21;12.60;99.90
2162;DHT22;1087;50.226;8.682;2023-01-01T11:16:49;12.60;99.90
2162;DHT22;1087;50.226;8.682;2023-01-01T11:19:23;12.60;99.90
2162;DHT22;1087;50.226;8.682;2023-01-01T11:21:49;12.70;99.90
2162;DHT22;1087;50.226;8.682;2023-01-01T11:24:19;12.70;99.90
2162;DHT22;1087;50.226;8.682;2023-01-01T11:26:44;12.70;99.90
2162;DHT22;1087;50.226;8.682;2023-01-01T11:31:46;12.70;99.90
2162;DHT22;1087;50.226;8.682;2023-01-01T11:34:26;12.80;99.90
2162;DHT22;1087;50.226;8.682;2023-01-01T11:39:45;12.80;99.90
2162;DHT22;1087;50.226;8.682;2023-01-01T11:42:21;12.80;99.90
2162;DHT22;1087;50.226;8.682;2023-01-01T11:47:37;12.80;99.90
2162;DHT22;1087;50.226;8.682;2023-01-01T11:52:42;12.90;99.90
2162;DHT22;1087;50.226;8.682;2023-01-01T12:00:24;13.00;99.90
2162;DHT22;1087;50.226;8.682;2023-01-01T12:02:55;13.10;99.90
2162;DHT22;1087;50.226;8.682;2023-01-01T12:05:25;13.00;99.90
2162;DHT22;1087;50.226;8.682;2023-01-01T12:07:55;13.10;99.90
2162;DHT22;1087;50.226;8.682;2023-01-01T12:10:30;13.10;99.90
2162;DHT22;1087;50.226;8.682;2023-01-01T12:13:02;13.10;99.90
2162;DHT22;1087;50.226;8.682;2023-01-01T12:15:57;13.10;99.90
2162;DHT22;1087;50.226;8.682;2023-01-01T12:18:36;13.10;99.90
2162;DHT22;1087;50.226;8.682;2023-01-01T12:21:25;13.10;99.90
2162;DHT22;1087;50.226;8.682;2023-01-01T12:23:52;13.10;99.90
2162;DHT22;1087;50.226;8.682;2023-01-01T12:26:25;13.20;99.90
2162;DHT22;1087;50.226;8.682;2023-01-01T12:34:26;13.20;99.90
2162;DHT22;1087;50.226;8.682;2023-01-01T12:37:04;13.20;99.90
2162;DHT22;1087;50.226;8.682;2023-01-01T12:40:24;13.20;99.90
2162;DHT22;1087;50.226;8.682;2023-01-01T12:43:07;13.30;99.90
2162;DHT22;1087;50.226;8.682;2023-01-01T12:46:10;13.30;99.90
2162;DHT22;1087;50.226;8.682;2023-01-01T12:48:46;13.30;99.90
2162;DHT22;1087;50.226;8.682;2023-01-01T12:51:30;13.20;99.90
2162;DHT22;1087;50.226;8.682;2023-01-01T12:56:37;13.30;99.90
2162;DHT22;1087;50.226;8.682;2023-01-01T12:59:13;13.30;99.90
2162;DHT22;1087;50.226;8.682;2023-01-01T13:01:41;13.20;99.90
2162;DHT22;1087;50.226;8.682;2023-01-01T13:04:16;13.20;99.90
2162;DHT22;1087;50.226;8.682;2023-01-01T13:06:55;13.30;99.90
2162;DHT22;1087;50.226;8.682;2023-01-01T13:09:29;13.30;99.90
2162;DHT22;1087;50.226;8.682;2023-01-01T13:12:05;13.30;99.90
2162;DHT22;1087;50.226;8.682;2023-01-01T13:14:39;13.40;99.90
2162;DHT22;1087;50.226;8.682;2023-01-01T13:17:20;13.30;99.90
2162;DHT22;1087;50.226;8.682;2023-01-01T13:19:47;13.30;99.90
2162;DHT22;1087;50.226;8.682;2023-01-01T13:25:18;13.40;99.90
2162;DHT22;1087;50.226;8.682;2023-01-01T13:35:39;13.40;99.90
2162;DHT22;1087;50.226;8.682;2023-01-01T13:44:11;13.40;99.90
2162;DHT22;1087;50.226;8.682;2023-01-01T13:58:23;13.40;99.90
2162;DHT22;1087;50.226;8.682;2023-01-01T14:03:43;13.40;99.90
2162;DHT22;1087;50.226;8.682;2023-01-01T14:06:11;13.50;99.90
2162;DHT22;1087;50.226;8.682;2023-01-01T14:08:39;13.50;99.90
2162;DHT22;1087;50.226;8.682;2023-01-01T14:11:23;13.50;99.90
2162;DHT22;1087;50.226;8.682;2023-01-01T14:13:49;13.40;99.90
2162;DHT22;1087;50.226;8.682;2023-01-01T14:16:15;13.40;99.90
2162;DHT22;1087;50.226;8.682;2023-01-01T14:21:12;13.50;99.90
2162;DHT22;1087;50.226;8.682;2023-01-01T14:23:42;13.50;99.90
2162;DHT22;1087;50.226;8.682;2023-01-01T14:26:12;13.50;99.90
2162;DHT22;1087;50.226;8.682;2023-01-01T14:28:39;13.50;99.90
2162;DHT22;1087;50.226;8.682;2023-01-01T14:31:19;13.50;99.90
2162;DHT22;1087;50.226;8.682;2023-01-01T14:33:46;13.50;99.90
2162;DHT22;1087;50.226;8.682;2023-01-01T14:36:28;13.60;99.90
2162;DHT22;1087;50.226;8.682;2023-01-01T14:38:55;13.50;99.90
2162;DHT22;1087;50.226;8.682;2023-01-01T14:43:56;13.60;99.90
2162;DHT22;1087;50.226;8.682;2023-01-01T14:46:24;13.50;99.90
2162;DHT22;1087;50.226;8.682;2023-01-01T14:48:55;13.50;99.90
2162;DHT22;1087;50.226;8.682;2023-01-01T14:51:24;13.60;99.90
2162;DHT22;1087;50.226;8.682;2023-01-01T14:53:54;13.60;99.90
2162;DHT22;1087;50.226;8.682;2023-01-01T14:56:30;13.60;99.90
2162;DHT22;1087;50.226;8.682;2023-01-01T15:01:28;13.50;99.90
2162;DHT22;1087;50.226;8.682;2023-01-01T15:03:59;13.60;99.90
2162;DHT22;1087;50.226;8.682;2023-01-01T15:06:26;13.60;99.90
2162;DHT22;1087;50.226;8.682;2023-01-01T15:08:52;13.60;99.90
2162;DHT22;1087;50.226;8.682;2023-01-01T15:11:19;13.50;99.90
2162;DHT22;1087;50.226;8.682;2023-01-01T15:13:56;13.50;99.90
2162;DHT22;1087;50.226;8.682;2023-01-01T15:16:22;13.60;99.90
2162;DHT22;1087;50.226;8.682;2023-01-01T15:18:49;13.50;99.90
2162;DHT22;1087;50.226;8.682;2023-01-01T15:23:58;13.60;99.90
2162;DHT22;1087;50.226;8.682;2023-01-01T15:26:51;13.50;99.90
2162;DHT22;1087;50.226;8.682;2023-01-01T15:29:35;13.50;99.90
2162;DHT22;1087;50.226;8.682;2023-01-01T15:32:13;13.50;99.90
2162;DHT22;1087;50.226;8.682;2023-01-01T15:34:50;13.50;99.90
2162;DHT22;1087;50.226;8.682;2023-01-01T15:37:29;13.50;99.90
2162;DHT22;1087;50.226;8.682;2023-01-01T15:39:58;13.40;99.90
2162;DHT22;1087;50.226;8.682;2023-01-01T15:42:33;13.50;99.90
2162;DHT22;1087;50.226;8.682;2023-01-01T15:45:35;13.60;99.90
2162;DHT22;1087;50.226;8.682;2023-01-01T15:50:35;13.50;99.90
2162;DHT22;1087;50.226;8.682;2023-01-01T15:53:26;13.50;99.90
2162;DHT22;1087;50.226;8.682;2023-01-01T15:55:58;13.50;99.90
2162;DHT22;1087;50.226;8.682;2023-01-01T16:01:12;13.50;99.90
2162;DHT22;1087;50.226;8.682;2023-01-01T16:03:39;13.40;99.90
2162;DHT22;1087;50.226;8.682;2023-01-01T16:06:06;13.40;99.90
2162;DHT22;1087;50.226;8.682;2023-01-01T16:08:32;13.50;99.90
2162;DHT22;1087;50.226;8.682;2023-01-01T16:10:58;13.50;99.90
2162;DHT22;1087;50.226;8.682;2023-01-01T16:13:23;13.50;99.90
2162;DHT22;1087;50.226;8.682;2023-01-01T16:18:16;13.60;99.90
2162;DHT22;1087;50.226;8.682;2023-01-01T16:20:42;13.60;99.90
2162;DHT22;1087;50.226;8.682;2023-01-01T16:23:09;13.60;99.90
2162;DHT22;1087;50.226;8.682;2023-01-01T16:25:34;13.60;99.90
2162;DHT22;1087;50.226;8.682;2023-01-01T16:28:00;13.60;99.90
2162;DHT22;1087;50.226;8.682;2023-01-01T16:30:26;13.60;99.90
2162;DHT22;1087;50.226;8.682;2023-01-01T16:32:51;13.60;99.90
2162;DHT22;1087;50.226;8.682;2023-01-01T16:35:17;13.70;99.90
2162;DHT22;1087;50.226;8.682;2023-01-01T16:37:42;13.70;99.90
2162;DHT22;1087;50.226;8.682;2023-01-01T16:40:08;13.70;99.90
2162;DHT22;1087;50.226;8.682;2023-01-01T16:42:34;13.60;99.90
2162;DHT22;1087;50.226;8.682;2023-01-01T16:44:59;13.60;99.90
2162;DHT22;1087;50.226;8.682;2023-01-01T16:47:25;13.70;99.90
2162;DHT22;1087;50.226;8.682;2023-01-01T16:49:50;13.70;99.90
2162;DHT22;1087;50.226;8.682;2023-01-01T16:52:16;13.70;99.90
2162;DHT22;1087;50.226;8.682;2023-01-01T16:54:42;13.70;99.90
2162;DHT22;1087;50.226;8.682;2023-01-01T16:57:07;13.70;99.90
2162;DHT22;1087;50.226;8.682;2023-01-01T16:59:33;13.70;99.90
2162;DHT22;1087;50.226;8.682;2023-01-01T17:02:00;13.60;99.90
2162;DHT22;1087;50.226;8.682;2023-01-01T17:04:25;13.60;99.90
2162;DHT22;1087;50.226;8.682;2023-01-01T17:06:53;13.60;99.90
2162;DHT22;1087;50.226;8.682;2023-01-01T17:09:18;13.60;99.90
2162;DHT22;1087;50.226;8.682;2023-01-01T17:11:44;13.60;99.90
2162;DHT22;1087;50.226;8.682;2023-01-01T17:14:10;13.60;99.90
2162;DHT22;1087;50.226;8.682;2023-01-01T17:16:37;13.60;99.90
2162;DHT22;1087;50.226;8.682;2023-01-01T17:19:03;13.60;99.90
2162;DHT22;1087;50.226;8.682;2023-01-01T17:21:28;13.60;99.90
2162;DHT22;1087;50.226;8.682;2023-01-01T17:23:54;13.60;99.90
2162;DHT22;1087;50.226;8.682;2023-01-01T17:26:22;13.50;99.90
2162;DHT22;1087;50.226;8.682;2023-01-01T17:28:49;13.60;99.90
2162;DHT22;1087;50.226;8.682;2023-01-01T17:31:17;13.50;99.90
2162;DHT22;1087;50.226;8.682;2023-01-01T17:33:48;13.50;99.90
2162;DHT22;1087;50.226;8.682;2023-01-01T17:36:14;13.50;99.90
2162;DHT22;1087;50.226;8.682;2023-01-01T17:38:41;13.50;99.90
2162;DHT22;1087;50.226;8.682;2023-01-01T17:41:13;13.40;99.90
2162;DHT22;1087;50.226;8.682;2023-01-01T17:43:41;13.40;99.90
2162;DHT22;1087;50.226;8.682;2023-01-01T17:48:38;13.40;99.90
2162;DHT22;1087;50.226;8.682;2023-01-01T17:51:04;13.40;99.90
2162;DHT22;1087;50.226;8.682;2023-01-01T17:53:29;13.40;99.90
2162;DHT22;1087;50.226;8.682;2023-01-01T17:55:55;13.40;99.90
2162;DHT22;1087;50.226;8.682;2023-01-01T17:58:22;13.40;99.90
2162;DHT22;1087;50.226;8.682;2023-01-01T18:00:48;13.40;99.90
2162;DHT22;1087;50.226;8.682;2023-01-01T18:03:15;13.30;99.90
2162;DHT22;1087;50.226;8.682;2023-01-01T18:05:42;13.40;99.90
2162;DHT22;1087;50.226;8.682;2023-01-01T18:08:07;13.40;99.90
2162;DHT22;1087;50.226;8.682;2023-01-01T18:10:33;13.40;99.90
2162;DHT22;1087;50.226;8.682;2023-01-01T18:12:59;13.40;99.90
2162;DHT22;1087;50.226;8.682;2023-01-01T18:15:25;13.40;99.90
2162;DHT22;1087;50.226;8.682;2023-01-01T18:17:50;13.40;99.90